sensor_id;sensor_type;location;lat;lon;timestamp;P1;P2;P0
69205;PMS7003;56319;48.920;2.332;2024-01-30T00:02:16;3.75;3.75;3.50
69205;PMS7003;56319;48.920;2.332;2024-01-30T00:04:42;11.75;11.25;9.50
69205;PMS7003;56319;48.920;2.332;2024-01-30T00:07:07;11.25;11.25;10.00
69205;PMS7003;56319;48.920;2.332;2024-01-30T00:09:33;14.25;12.00;10.00
69205;PMS7003;56319;48.920;2.332;2024-01-30T00:11:59;12.50;11.00;9.00
69205;PMS7003;56319;48.920;2.332;2024-01-30T00:14:25;13.50;13.25;10.00
69205;PMS7003;56319;48.920;2.332;2024-01-30T00:16:51;13.00;12.75;11.00
69205;PMS7003;56319;48.920;2.332;2024-01-30T00:19:17;12.00;12.00;10.00
69205;PMS7003;56319;48.920;2.332;2024-01-30T00:21:42;11.75;11.75;10.75
69205;PMS7003;56319;48.920;2.332;2024-01-30T00:24:08;14.25;11.75;10.00
69205;PMS7003;56319;48.920;2.332;2024-01-30T00:26:34;13.75;12.25;10.50
69205;PMS7003;56319;48.920;2.332;2024-01-30T00:29:00;16.00;14.25;12.00
69205;PMS7003;56319;48.920;2.332;2024-01-30T00:31:26;12.00;11.50;8.00
69205;PMS7003;56319;48.920;2.332;2024-01-30T00:33:52;9.50;9.00;5.75
69205;PMS7003;56319;48.920;2.332;2024-01-30T00:36:17;14.25;14.00;11.00
69205;PMS7003;56319;48.920;2.332;2024-01-30T00:38:43;14.25;13.50;11.25
69205;PMS7003;56319;48.920;2.332;2024-01-30T00:41:09;12.00;12.00;10.50
69205;PMS7003;56319;48.920;2.332;2024-01-30T00:43:35;17.00;13.00;11.25
69205;PMS7003;56319;48.920;2.332;2024-01-30T00:46:01;16.00;15.50;11.75
69205;PMS7003;56319;48.920;2.332;2024-01-30T00:48:27;13.50;13.50;11.00
69205;PMS7003;56319;48.920;2.332;2024-01-30T00:50:52;16.00;16.00;11.00
69205;PMS7003;56319;48.920;2.332;2024-01-30T00:53:18;16.75;13.00;12.00
69205;PMS7003;56319;48.920;2.332;2024-01-30T00:55:44;9.25;9.25;8.75
69205;PMS7003;56319;48.920;2.332;2024-01-30T00:58:09;15.50;13.00;10.25
69205;PMS7003;56319;48.920;2.332;2024-01-30T01:00:35;17.50;13.50;11.25
69205;PMS7003;56319;48.920;2.332;2024-01-30T01:03:01;13.00;13.00;10.00
69205;PMS7003;56319;48.920;2.332;2024-01-30T01:05:27;13.00;13.00;9.75
69205;PMS7003;56319;48.920;2.332;2024-01-30T01:07:53;13.75;11.75;10.00
69205;PMS7003;56319;48.920;2.332;2024-01-30T01:10:18;16.75;14.75;12.25
69205;PMS7003;56319;48.920;2.332;2024-01-30T01:12:45;15.25;14.25;12.00
69205;PMS7003;56319;48.920;2.332;2024-01-30T01:15:11;18.00;13.50;10.25
69205;PMS7003;56319;48.920;2.332;2024-01-30T01:17:37;13.50;13.00;11.00
69205;PMS7003;56319;48.920;2.332;2024-01-30T01:20:04;12.50;12.50;11.25
69205;PMS7003;56319;48.920;2.332;2024-01-30T01:22:32;18.25;17.00;12.50
69205;PMS7003;56319;48.920;2.332;2024-01-30T01:24:59;13.25;13.00;11.25
69205;PMS7003;56319;48.920;2.332;2024-01-30T01:27:25;16.50;12.00;9.75
69205;PMS7003;56319;48.920;2.332;2024-01-30T01:29:52;14.25;13.00;11.25
69205;PMS7003;56319;48.920;2.332;2024-01-30T01:32:18;17.50;14.25;10.00
69205;PMS7003;56319;48.920;2.332;2024-01-30T01:34:44;16.50;16.25;12.00
69205;PMS7003;56319;48.920;2.332;2024-01-30T01:37:10;13.50;11.75;10.50
69205;PMS7003;56319;48.920;2.332;2024-01-30T01:39:36;19.00;16.00;12.75
69205;PMS7003;56319;48.920;2.332;2024-01-30T01:42:02;17.00;15.25;11.00
69205;PMS7003;56319;48.920;2.332;2024-01-30T01:44:28;17.25;16.25;12.00
69205;PMS7003;56319;48.920;2.332;2024-01-30T01:46:54;14.25;12.50;10.50
69205;PMS7003;56319;48.920;2.332;2024-01-30T01:49:23;20.50;16.25;12.00
69205;PMS7003;56319;48.920;2.332;2024-01-30T01:51:50;18.00;16.00;12.00
69205;PMS7003;56319;48.920;2.332;2024-01-30T01:54:19;16.00;13.25;11.50
69205;PMS7003;56319;48.920;2.332;2024-01-30T01:56:45;14.25;13.00;11.25
69205;PMS7003;56319;48.920;2.332;2024-01-30T01:59:11;17.25;16.75;11.00
69205;PMS7003;56319;48.920;2.332;2024-01-30T02:01:38;16.00;15.00;12.00
69205;PMS7003;56319;48.920;2.332;2024-01-30T02:04:07;18.75;17.00;13.50
69205;PMS7003;56319;48.920;2.332;2024-01-30T02:06:33;19.25;17.50;12.00
69205;PMS7003;56319;48.920;2.332;2024-01-30T02:08:59;15.75;15.50;12.00
69205;PMS7003;56319;48.920;2.332;2024-01-30T02:11:26;17.75;13.75;11.75
69205;PMS7003;56319;48.920;2.332;2024-01-30T02:13:52;15.00;14.25;11.75
69205;PMS7003;56319;48.920;2.332;2024-01-30T02:16:18;16.25;12.75;11.00
69205;PMS7003;56319;48.920;2.332;2024-01-30T02:18:43;16.00;13.25;11.00
69205;PMS7003;56319;48.920;2.332;2024-01-30T02:21:13;16.00;15.50;12.00
69205;PMS7003;56319;48.920;2.332;2024-01-30T02:23:41;17.25;15.25;12.50
69205;PMS7003;56319;48.920;2.332;2024-01-30T02:26:09;15.00;13.50;9.75
69205;PMS7003;56319;48.920;2.332;2024-01-30T02:28:37;21.00;17.50;13.00
69205;PMS7003;56319;48.920;2.332;2024-01-30T02:31:03;17.00;15.50;12.50
69205;PMS7003;56319;48.920;2.332;2024-01-30T02:33:29;17.50;14.00;12.00
69205;PMS7003;56319;48.920;2.332;2024-01-30T02:35:55;18.25;14.75;11.00
69205;PMS7003;56319;48.920;2.332;2024-01-30T02:38:21;14.50;14.25;12.00
69205;PMS7003;56319;48.920;2.332;2024-01-30T02:40:48;17.50;17.25;12.00
69205;PMS7003;56319;48.920;2.332;2024-01-30T02:43:15;7.50;7.50;4.25
69205;PMS7003;56319;48.920;2.332;2024-01-30T02:45:42;15.25;12.25;10.00
69205;PMS7003;56319;48.920;2.332;2024-01-30T02:48:08;18.25;16.75;12.00
69205;PMS7003;56319;48.920;2.332;2024-01-30T02:50:34;15.75;14.75;11.25
69205;PMS7003;56319;48.920;2.332;2024-01-30T02:53:00;17.75;15.75;12.00
69205;PMS7003;56319;48.920;2.332;2024-01-30T02:55:25;18.75;16.00;11.25
69205;PMS7003;56319;48.920;2.332;2024-01-30T02:57:51;17.00;17.00;14.00
69205;PMS7003;56319;48.920;2.332;2024-01-30T03:00:17;14.25;14.25;11.75
69205;PMS7003;56319;48.920;2.332;2024-01-30T03:02:45;19.00;15.75;12.25
69205;PMS7003;56319;48.920;2.332;2024-01-30T03:05:11;17.50;16.25;12.25
69205;PMS7003;56319;48.920;2.332;2024-01-30T03:07:37;15.25;15.25;12.25
69205;PMS7003;56319;48.920;2.332;2024-01-30T03:10:04;22.50;16.50;13.00
69205;PMS7003;56319;48.920;2.332;2024-01-30T03:12:31;13.00;13.00;11.00
69205;PMS7003;56319;48.920;2.332;2024-01-30T03:14:57;14.75;14.75;12.25
69205;PMS7003;56319;48.920;2.332;2024-01-30T03:17:23;19.75;16.75;13.25
69205;PMS7003;56319;48.920;2.332;2024-01-30T03:19:49;17.00;16.00;12.00
69205;PMS7003;56319;48.920;2.332;2024-01-30T03:22:15;15.25;12.50;11.25
69205;PMS7003;56319;48.920;2.332;2024-01-30T03:24:41;19.75;17.75;14.00
69205;PMS7003;56319;48.920;2.332;2024-01-30T03:27:07;16.25;13.00;12.25
69205;PMS7003;56319;48.920;2.332;2024-01-30T03:29:34;17.00;15.75;11.50
69205;PMS7003;56319;48.920;2.332;2024-01-30T03:31:59;15.00;13.50;10.00
69205;PMS7003;56319;48.920;2.332;2024-01-30T03:34:25;18.50;15.50;11.75
69205;PMS7003;56319;48.920;2.332;2024-01-30T03:36:51;18.50;15.50;12.50
69205;PMS7003;56319;48.920;2.332;2024-01-30T03:39:17;17.00;15.75;12.00
69205;PMS7003;56319;48.920;2.332;2024-01-30T03:41:43;17.25;15.50;12.25
69205;PMS7003;56319;48.920;2.332;2024-01-30T03:44:09;16.50;13.25;11.00
69205;PMS7003;56319;48.920;2.332;2024-01-30T03:46:35;16.75;14.25;11.00
69205;PMS7003;56319;48.920;2.332;2024-01-30T03:49:01;18.75;15.25;11.25
69205;PMS7003;56319;48.920;2.332;2024-01-30T03:51:27;16.00;14.00;11.75
69205;PMS7003;56319;48.920;2.332;2024-01-30T03:53:53;15.00;13.50;11.50
69205;PMS7003;56319;48.920;2.332;2024-01-30T03:56:19;13.00;13.00;11.00
69205;PMS7003;56319;48.920;2.332;2024-01-30T03:58:45;19.00;17.75;13.00
69205;PMS7003;56319;48.920;2.332;2024-01-30T04:01:13;15.75;15.75;11.75
69205;PMS7003;56319;48.920;2.332;2024-01-30T04:03:41;15.25;14.75;11.00
69205;PMS7003;56319;48.920;2.332;2024-01-30T04:06:09;14.75;13.00;11.00
69205;PMS7003;56319;48.920;2.332;2024-01-30T04:08:35;0.00;0.00;0.00
69205;PMS7003;56319;48.920;2.332;2024-01-30T04:11:03;18.25;13.00;11.25
69205;PMS7003;56319;48.920;2.332;2024-01-30T04:13:32;14.25;14.00;11.00
69205;PMS7003;56319;48.920;2.332;2024-01-30T04:15:59;15.50;13.25;11.50
69205;PMS7003;56319;48.920;2.332;2024-01-30T04:18:27;16.25;13.50;11.75
69205;PMS7003;56319;48.920;2.332;2024-01-30T04:20:53;14.50;13.25;10.75
69205;PMS7003;56319;48.920;2.332;2024-01-30T04:23:18;15.75;14.25;12.00
69205;PMS7003;56319;48.920;2.332;2024-01-30T04:25:44;15.75;13.50;11.00
69205;PMS7003;56319;48.920;2.332;2024-01-30T04:28:10;16.00;15.50;12.75
69205;PMS7003;56319;48.920;2.332;2024-01-30T04:30:37;14.25;11.25;9.50
69205;PMS7003;56319;48.920;2.332;2024-01-30T04:33:03;14.50;12.75;9.50
69205;PMS7003;56319;48.920;2.332;2024-01-30T04:35:29;15.25;14.00;10.75
69205;PMS7003;56319;48.920;2.332;2024-01-30T04:37:55;17.50;15.50;13.50
69205;PMS7003;56319;48.920;2.332;2024-01-30T04:40:21;16.75;16.00;12.75
69205;PMS7003;56319;48.920;2.332;2024-01-30T04:42:47;12.50;11.00;10.50
69205;PMS7003;56319;48.920;2.332;2024-01-30T04:45:13;14.75;13.00;10.75
69205;PMS7003;56319;48.920;2.332;2024-01-30T04:47:39;10.25;10.25;9.00
69205;PMS7003;56319;48.920;2.332;2024-01-30T04:50:06;15.25;14.00;11.25
69205;PMS7003;56319;48.920;2.332;2024-01-30T04:52:32;15.25;13.00;11.00
69205;PMS7003;56319;48.920;2.332;2024-01-30T04:54:58;13.25;12.50;11.00
69205;PMS7003;56319;48.920;2.332;2024-01-30T04:57:24;15.75;15.00;11.00
69205;PMS7003;56319;48.920;2.332;2024-01-30T04:59:50;14.25;12.25;10.25
69205;PMS7003;56319;48.920;2.332;2024-01-30T05:02:15;14.75;13.00;10.00
69205;PMS7003;56319;48.920;2.332;2024-01-30T05:04:41;16.25;11.75;9.50
69205;PMS7003;56319;48.920;2.332;2024-01-30T05:07:07;13.00;13.00;10.00
69205;PMS7003;56319;48.920;2.332;2024-01-30T05:09:33;13.25;13.00;11.00
69205;PMS7003;56319;48.920;2.332;2024-01-30T05:11:58;16.75;12.50;11.00
69205;PMS7003;56319;48.920;2.332;2024-01-30T05:14:24;12.50;12.50;11.00
69205;PMS7003;56319;48.920;2.332;2024-01-30T05:16:50;17.00;14.00;11.00
69205;PMS7003;56319;48.920;2.332;2024-01-30T05:19:16;15.75;12.75;10.50
69205;PMS7003;56319;48.920;2.332;2024-01-30T05:21:42;17.00;12.00;10.00
69205;PMS7003;56319;48.920;2.332;2024-01-30T05:24:08;12.00;11.75;9.00
69205;PMS7003;56319;48.920;2.332;2024-01-30T05:26:35;10.25;10.25;9.00
69205;PMS7003;56319;48.920;2.332;2024-01-30T05:29:02;13.50;12.50;9.75
69205;PMS7003;56319;48.920;2.332;2024-01-30T05:31:28;14.25;14.00;10.50
69205;PMS7003;56319;48.920;2.332;2024-01-30T05:33:54;11.50;10.50;9.00
69205;PMS7003;56319;48.920;2.332;2024-01-30T05:36:20;16.50;12.75;11.00
69205;PMS7003;56319;48.920;2.332;2024-01-30T05:38:46;16.00;13.00;11.00
69205;PMS7003;56319;48.920;2.332;2024-01-30T05:41:12;13.00;11.25;10.00
69205;PMS7003;56319;48.920;2.332;2024-01-30T05:43:38;14.00;11.50;9.50
69205;PMS7003;56319;48.920;2.332;2024-01-30T05:46:04;12.00;11.00;9.50
69205;PMS7003;56319;48.920;2.332;2024-01-30T05:48:30;18.00;16.00;11.00
69205;PMS7003;56319;48.920;2.332;2024-01-30T05:50:56;11.50;10.75;10.00
69205;PMS7003;56319;48.920;2.332;2024-01-30T05:53:22;15.25;13.50;11.00
69205;PMS7003;56319;48.920;2.332;2024-01-30T05:55:47;16.00;12.00;10.00
69205;PMS7003;56319;48.920;2.332;2024-01-30T05:58:15;14.50;11.75;9.50
69205;PMS7003;56319;48.920;2.332;2024-01-30T06:00:41;13.00;13.00;10.25
69205;PMS7003;56319;48.920;2.332;2024-01-30T06:03:07;15.75;12.75;10.50
69205;PMS7003;56319;48.920;2.332;2024-01-30T06:05:33;17.25;13.25;10.00
69205;PMS7003;56319;48.920;2.332;2024-01-30T06:07:58;14.00;14.00;9.75
69205;PMS7003;56319;48.920;2.332;2024-01-30T06:10:24;13.25;12.25;11.00
69205;PMS7003;56319;48.920;2.332;2024-01-30T06:12:50;12.75;12.75;11.00
69205;PMS7003;56319;48.920;2.332;2024-01-30T06:15:16;11.00;11.00;9.50
69205;PMS7003;56319;48.920;2.332;2024-01-30T06:17:41;14.75;13.00;10.75
69205;PMS7003;56319;48.920;2.332;2024-01-30T06:20:07;10.75;10.00;9.25
69205;PMS7003;56319;48.920;2.332;2024-01-30T06:22:33;15.50;14.00;11.25
69205;PMS7003;56319;48.920;2.332;2024-01-30T06:24:59;17.25;12.50;11.00
69205;PMS7003;56319;48.920;2.332;2024-01-30T06:27:24;10.75;9.50;8.75
69205;PMS7003;56319;48.920;2.332;2024-01-30T06:29:50;13.00;12.50;10.75
69205;PMS7003;56319;48.920;2.332;2024-01-30T06:32:16;11.00;11.00;9.00
69205;PMS7003;56319;48.920;2.332;2024-01-30T06:34:42;17.00;12.50;10.00
69205;PMS7003;56319;48.920;2.332;2024-01-30T06:37:09;14.25;12.00;10.50
69205;PMS7003;56319;48.920;2.332;2024-01-30T06:39:35;9.00;9.00;6.00
69205;PMS7003;56319;48.920;2.332;2024-01-30T06:42:01;6.50;4.75;4.00
69205;PMS7003;56319;48.920;2.332;2024-01-30T06:44:27;12.75;12.50;10.75
69205;PMS7003;56319;48.920;2.332;2024-01-30T06:46:53;11.00;10.00;9.00
69205;PMS7003;56319;48.920;2.332;2024-01-30T06:49:19;13.25;11.00;9.00
69205;PMS7003;56319;48.920;2.332;2024-01-30T06:51:47;14.75;11.25;9.75
69205;PMS7003;56319;48.920;2.332;2024-01-30T06:54:13;14.75;12.00;10.00
69205;PMS7003;56319;48.920;2.332;2024-01-30T06:56:39;11.50;11.50;10.00
69205;PMS7003;56319;48.920;2.332;2024-01-30T06:59:04;16.75;12.25;10.75
69205;PMS7003;56319;48.920;2.332;2024-01-30T07:01:30;14.75;12.75;10.50
69205;PMS7003;56319;48.920;2.332;2024-01-30T07:03:57;13.50;12.00;10.00
69205;PMS7003;56319;48.920;2.332;2024-01-30T07:06:23;12.00;11.00;8.75
69205;PMS7003;56319;48.920;2.332;2024-01-30T07:08:49;13.25;12.75;10.00
69205;PMS7003;56319;48.920;2.332;2024-01-30T07:14:00;13.00;12.00;10.00
69205;PMS7003;56319;48.920;2.332;2024-01-30T07:16:28;11.25;11.00;9.00
69205;PMS7003;56319;48.920;2.332;2024-01-30T07:18:54;9.00;7.50;6.50
69205;PMS7003;56319;48.920;2.332;2024-01-30T07:21:21;11.75;11.00;10.00
69205;PMS7003;56319;48.920;2.332;2024-01-30T07:23:52;11.75;11.00;10.00
69205;PMS7003;56319;48.920;2.332;2024-01-30T07:26:19;15.00;12.00;10.00
69205;PMS7003;56319;48.920;2.332;2024-01-30T07:28:44;10.75;8.25;6.25
69205;PMS7003;56319;48.920;2.332;2024-01-30T07:31:10;12.75;12.25;10.00
69205;PMS7003;56319;48.920;2.332;2024-01-30T07:33:36;11.00;10.00;9.00
69205;PMS7003;56319;48.920;2.332;2024-01-30T07:36:01;12.50;12.50;9.75
69205;PMS7003;56319;48.920;2.332;2024-01-30T07:38:27;11.75;10.75;9.25
69205;PMS7003;56319;48.920;2.332;2024-01-30T07:40:53;16.50;12.50;10.00
69205;PMS7003;56319;48.920;2.332;2024-01-30T07:43:18;11.50;11.00;9.00
69205;PMS7003;56319;48.920;2.332;2024-01-30T07:45:45;12.00;12.00;10.00
69205;PMS7003;56319;48.920;2.332;2024-01-30T07:48:10;11.50;11.50;9.00
69205;PMS7003;56319;48.920;2.332;2024-01-30T07:50:36;11.75;11.25;9.50
69205;PMS7003;56319;48.920;2.332;2024-01-30T07:53:02;13.25;11.25;9.00
69205;PMS7003;56319;48.920;2.332;2024-01-30T07:55:27;12.00;11.50;10.25
69205;PMS7003;56319;48.920;2.332;2024-01-30T07:57:54;12.00;11.75;9.75
69205;PMS7003;56319;48.920;2.332;2024-01-30T08:00:21;13.00;13.00;10.50
69205;PMS7003;56319;48.920;2.332;2024-01-30T08:05:33;12.00;10.25;8.50
69205;PMS7003;56319;48.920;2.332;2024-01-30T08:07:58;12.75;11.25;9.50
69205;PMS7003;56319;48.920;2.332;2024-01-30T08:10:24;10.00;10.00;8.75
69205;PMS7003;56319;48.920;2.332;2024-01-30T08:12:49;14.00;11.00;8.00
69205;PMS7003;56319;48.920;2.332;2024-01-30T08:15:15;14.75;11.00;9.25
69205;PMS7003;56319;48.920;2.332;2024-01-30T08:17:41;15.75;13.25;10.00
69205;PMS7003;56319;48.920;2.332;2024-01-30T08:20:10;9.75;9.50;8.00
69205;PMS7003;56319;48.920;2.332;2024-01-30T08:22:38;10.25;9.75;9.00
69205;PMS7003;56319;48.920;2.332;2024-01-30T08:25:05;12.50;11.00;9.00
69205;PMS7003;56319;48.920;2.332;2024-01-30T08:27:31;12.00;11.75;10.00
69205;PMS7003;56319;48.920;2.332;2024-01-30T08:29:57;15.25;11.00;9.00
69205;PMS7003;56319;48.920;2.332;2024-01-30T08:32:22;13.25;11.00;9.00
69205;PMS7003;56319;48.920;2.332;2024-01-30T08:34:49;10.25;10.00;9.00
69205;PMS7003;56319;48.920;2.332;2024-01-30T08:37:15;12.25;11.25;9.25
69205;PMS7003;56319;48.920;2.332;2024-01-30T08:39:42;14.75;12.25;9.25
69205;PMS7003;56319;48.920;2.332;2024-01-30T08:42:08;13.50;10.00;9.00
69205;PMS7003;56319;48.920;2.332;2024-01-30T08:44:34;11.50;11.25;9.00
69205;PMS7003;56319;48.920;2.332;2024-01-30T08:46:59;12.50;10.25;9.00
69205;PMS7003;56319;48.920;2.332;2024-01-30T08:49:25;10.75;10.50;8.25
69205;PMS7003;56319;48.920;2.332;2024-01-30T08:51:50;11.25;11.25;9.50
69205;PMS7003;56319;48.920;2.332;2024-01-30T08:54:16;10.25;10.25;8.25
69205;PMS7003;56319;48.920;2.332;2024-01-30T08:56:42;11.25;11.00;9.00
69205;PMS7003;56319;48.920;2.332;2024-01-30T08:59:08;11.25;10.50;9.00
69205;PMS7003;56319;48.920;2.332;2024-01-30T09:01:33;9.75;9.75;8.75
69205;PMS7003;56319;48.920;2.332;2024-01-30T09:03:59;11.25;11.00;9.00
69205;PMS7003;56319;48.920;2.332;2024-01-30T09:06:25;11.25;11.25;9.25
69205;PMS7003;56319;48.920;2.332;2024-01-30T09:08:53;15.50;11.50;9.50
69205;PMS7003;56319;48.920;2.332;2024-01-30T09:11:19;13.75;12.75;10.75
69205;PMS7003;56319;48.920;2.332;2024-01-30T09:13:44;14.00;11.75;9.00
69205;PMS7003;56319;48.920;2.332;2024-01-30T09:16:10;12.00;10.50;10.00
69205;PMS7003;56319;48.920;2.332;2024-01-30T09:18:36;11.25;9.75;8.00
69205;PMS7003;56319;48.920;2.332;2024-01-30T09:21:01;9.00;9.00;8.25
69205;PMS7003;56319;48.920;2.332;2024-01-30T09:23:27;11.75;11.25;9.50
69205;PMS7003;56319;48.920;2.332;2024-01-30T09:25:53;13.25;12.00;9.75
69205;PMS7003;56319;48.920;2.332;2024-01-30T09:28:18;9.25;8.00;6.25
69205;PMS7003;56319;48.920;2.332;2024-01-30T09:30:44;9.00;9.00;8.00
69205;PMS7003;56319;48.920;2.332;2024-01-30T09:33:10;11.75;11.00;9.00
69205;PMS7003;56319;48.920;2.332;2024-01-30T09:35:36;12.25;10.75;8.25
69205;PMS7003;56319;48.920;2.332;2024-01-30T09:38:01;14.75;12.00;9.00
69205;PMS7003;56319;48.920;2.332;2024-01-30T09:40:27;12.50;10.75;8.50
69205;PMS7003;56319;48.920;2.332;2024-01-30T09:42:54;10.25;9.25;7.75
69205;PMS7003;56319;48.920;2.332;2024-01-30T09:45:23;12.50;11.00;9.00
69205;PMS7003;56319;48.920;2.332;2024-01-30T09:47:50;11.00;10.00;9.00
69205;PMS7003;56319;48.920;2.332;2024-01-30T09:50:16;11.50;9.75;8.00
69205;PMS7003;56319;48.920;2.332;2024-01-30T09:52:44;13.25;10.50;9.00
69205;PMS7003;56319;48.920;2.332;2024-01-30T09:55:10;16.75;10.50;9.00
69205;PMS7003;56319;48.920;2.332;2024-01-30T09:57:36;5.75;5.50;5.25
69205;PMS7003;56319;48.920;2.332;2024-01-30T10:00:02;10.00;10.00;9.00
69205;PMS7003;56319;48.920;2.332;2024-01-30T10:02:31;15.25;10.00;9.00
69205;PMS7003;56319;48.920;2.332;2024-01-30T10:04:57;14.50;11.00;8.25
69205;PMS7003;56319;48.920;2.332;2024-01-30T10:07:22;9.50;9.50;7.75
69205;PMS7003;56319;48.920;2.332;2024-01-30T10:09:48;13.00;11.25;9.25
69205;PMS7003;56319;48.920;2.332;2024-01-30T10:12:15;9.75;9.75;8.75
69205;PMS7003;56319;48.920;2.332;2024-01-30T10:14:42;12.25;11.50;10.00
69205;PMS7003;56319;48.920;2.332;2024-01-30T10:17:08;10.25;8.00;5.00
69205;PMS7003;56319;48.920;2.332;2024-01-30T10:19:35;11.00;9.50;8.00
69205;PMS7003;56319;48.920;2.332;2024-01-30T10:22:01;12.00;10.00;9.00
69205;PMS7003;56319;48.920;2.332;2024-01-30T10:24:27;13.00;11.50;9.25
69205;PMS7003;56319;48.920;2.332;2024-01-30T10:26:54;13.50;9.50;8.00
69205;PMS7003;56319;48.920;2.332;2024-01-30T10:29:20;9.25;8.25;6.00
69205;PMS7003;56319;48.920;2.332;2024-01-30T10:31:45;11.25;10.75;9.00
69205;PMS7003;56319;48.920;2.332;2024-01-30T10:34:12;10.25;10.00;8.00
69205;PMS7003;56319;48.920;2.332;2024-01-30T10:36:39;13.75;11.75;10.25
69205;PMS7003;56319;48.920;2.332;2024-01-30T10:39:07;12.00;10.00;8.50
69205;PMS7003;56319;48.920;2.332;2024-01-30T10:41:35;11.25;8.75;5.75
69205;PMS7003;56319;48.920;2.332;2024-01-30T10:44:09;9.50;9.50;8.50
69205;PMS7003;56319;48.920;2.332;2024-01-30T10:46:36;14.00;10.00;9.00
69205;PMS7003;56319;48.920;2.332;2024-01-30T10:51:30;12.00;8.25;6.00
69205;PMS7003;56319;48.920;2.332;2024-01-30T10:53:57;11.75;9.50;8.75
69205;PMS7003;56319;48.920;2.332;2024-01-30T10:56:24;8.75;8.75;6.25
69205;PMS7003;56319;48.920;2.332;2024-01-30T10:58:50;12.75;11.50;10.50
69205;PMS7003;56319;48.920;2.332;2024-01-30T11:01:20;9.50;8.00;6.00
69205;PMS7003;56319;48.920;2.332;2024-01-30T11:03:51;9.75;9.00;8.00
69205;PMS7003;56319;48.920;2.332;2024-01-30T11:06:17;11.00;9.75;8.25
69205;PMS7003;56319;48.920;2.332;2024-01-30T11:08:44;11.50;10.25;8.75
69205;PMS7003;56319;48.920;2.332;2024-01-30T11:11:10;9.00;9.00;5.50
69205;PMS7003;56319;48.920;2.332;2024-01-30T11:13:36;10.50;10.00;8.25
69205;PMS7003;56319;48.920;2.332;2024-01-30T11:16:04;10.75;10.00;7.75
69205;PMS7003;56319;48.920;2.332;2024-01-30T11:18:30;7.00;5.50;5.25
69205;PMS7003;56319;48.920;2.332;2024-01-30T11:20:57;9.25;9.25;6.50
69205;PMS7003;56319;48.920;2.332;2024-01-30T11:23:27;11.00;10.00;6.75
69205;PMS7003;56319;48.920;2.332;2024-01-30T11:25:54;10.00;8.00;5.50
69205;PMS7003;56319;48.920;2.332;2024-01-30T11:28:21;14.00;10.25;8.00
69205;PMS7003;56319;48.920;2.332;2024-01-30T11:30:47;10.25;9.25;7.25
69205;PMS7003;56319;48.920;2.332;2024-01-30T11:33:16;8.00;7.25;5.75
69205;PMS7003;56319;48.920;2.332;2024-01-30T11:35:58;9.00;9.00;7.75
69205;PMS7003;56319;48.920;2.332;2024-01-30T11:38:25;10.25;8.50;6.50
69205;PMS7003;56319;48.920;2.332;2024-01-30T11:40:53;9.25;9.00;7.50
69205;PMS7003;56319;48.920;2.332;2024-01-30T11:43:22;11.50;9.00;8.00
69205;PMS7003;56319;48.920;2.332;2024-01-30T11:45:48;9.75;8.00;6.00
69205;PMS7003;56319;48.920;2.332;2024-01-30T11:48:14;9.00;9.00;8.00
69205;PMS7003;56319;48.920;2.332;2024-01-30T11:50:40;9.25;8.75;7.50
69205;PMS7003;56319;48.920;2.332;2024-01-30T11:53:06;9.25;7.25;4.50
69205;PMS7003;56319;48.920;2.332;2024-01-30T11:55:32;8.50;8.00;6.00
69205;PMS7003;56319;48.920;2.332;2024-01-30T11:57:58;10.00;8.25;6.00
69205;PMS7003;56319;48.920;2.332;2024-01-30T12:00:24;12.75;9.25;9.00
69205;PMS7003;56319;48.920;2.332;2024-01-30T12:02:50;9.00;9.00;8.00
69205;PMS7003;56319;48.920;2.332;2024-01-30T12:05:20;9.00;9.00;6.00
69205;PMS7003;56319;48.920;2.332;2024-01-30T12:07:46;9.00;8.50;7.25
69205;PMS7003;56319;48.920;2.332;2024-01-30T12:10:12;10.00;8.00;6.00
69205;PMS7003;56319;48.920;2.332;2024-01-30T12:12:40;10.50;9.00;8.00
69205;PMS7003;56319;48.920;2.332;2024-01-30T12:15:08;8.50;8.00;5.75
69205;PMS7003;56319;48.920;2.332;2024-01-30T12:17:34;10.75;9.75;8.00
69205;PMS7003;56319;48.920;2.332;2024-01-30T12:22:47;8.00;7.75;5.75
69205;PMS7003;56319;48.920;2.332;2024-01-30T12:25:15;0.75;0.00;0.00
69205;PMS7003;56319;48.920;2.332;2024-01-30T12:27:43;8.00;8.00;6.25
69205;PMS7003;56319;48.920;2.332;2024-01-30T12:30:11;9.50;9.00;5.00
69205;PMS7003;56319;48.920;2.332;2024-01-30T12:32:40;9.75;6.25;5.50
69205;PMS7003;56319;48.920;2.332;2024-01-30T12:35:09;6.00;6.00;5.00
69205;PMS7003;56319;48.920;2.332;2024-01-30T12:37:35;10.75;8.75;6.00
69205;PMS7003;56319;48.920;2.332;2024-01-30T12:40:02;10.75;9.00;6.00
69205;PMS7003;56319;48.920;2.332;2024-01-30T12:42:27;8.00;8.00;7.25
69205;PMS7003;56319;48.920;2.332;2024-01-30T12:44:53;7.75;7.75;6.00
69205;PMS7003;56319;48.920;2.332;2024-01-30T12:47:21;8.50;8.50;6.00
69205;PMS7003;56319;48.920;2.332;2024-01-30T12:49:47;10.25;7.75;5.75
69205;PMS7003;56319;48.920;2.332;2024-01-30T12:52:13;6.00;4.75;4.25
69205;PMS7003;56319;48.920;2.332;2024-01-30T12:54:41;11.00;10.00;8.00
69205;PMS7003;56319;48.920;2.332;2024-01-30T12:57:07;8.75;8.75;6.00
69205;PMS7003;56319;48.920;2.332;2024-01-30T12:59:32;9.75;7.00;5.75
69205;PMS7003;56319;48.920;2.332;2024-01-30T13:02:00;10.00;10.00;8.00
69205;PMS7003;56319;48.920;2.332;2024-01-30T13:04:27;8.50;8.50;6.25
69205;PMS7003;56319;48.920;2.332;2024-01-30T13:06:53;9.50;8.25;6.00
69205;PMS7003;56319;48.920;2.332;2024-01-30T13:09:19;8.50;8.50;7.50
69205;PMS7003;56319;48.920;2.332;2024-01-30T13:11:45;9.00;6.50;5.00
69205;PMS7003;56319;48.920;2.332;2024-01-30T13:14:11;5.50;5.50;5.00
69205;PMS7003;56319;48.920;2.332;2024-01-30T13:16:37;8.25;8.00;4.75
69205;PMS7003;56319;48.920;2.332;2024-01-30T13:19:02;7.00;7.00;5.00
69205;PMS7003;56319;48.920;2.332;2024-01-30T13:21:28;8.00;8.00;5.75
69205;PMS7003;56319;48.920;2.332;2024-01-30T13:23:54;8.25;7.25;6.00
69205;PMS7003;56319;48.920;2.332;2024-01-30T13:26:20;9.50;7.00;5.75
69205;PMS7003;56319;48.920;2.332;2024-01-30T13:28:47;11.50;6.75;5.50
69205;PMS7003;56319;48.920;2.332;2024-01-30T13:31:13;8.75;6.00;5.00
69205;PMS7003;56319;48.920;2.332;2024-01-30T13:33:39;7.00;5.00;4.00
69205;PMS7003;56319;48.920;2.332;2024-01-30T13:36:06;7.50;6.00;5.00
69205;PMS7003;56319;48.920;2.332;2024-01-30T13:38:35;6.00;6.00;5.00
69205;PMS7003;56319;48.920;2.332;2024-01-30T13:41:00;9.00;5.25;5.00
69205;PMS7003;56319;48.920;2.332;2024-01-30T13:43:26;7.75;6.00;6.00
69205;PMS7003;56319;48.920;2.332;2024-01-30T13:45:52;5.25;5.00;4.00
69205;PMS7003;56319;48.920;2.332;2024-01-30T13:48:18;8.75;5.50;4.00
69205;PMS7003;56319;48.920;2.332;2024-01-30T13:50:44;5.00;5.00;5.00
69205;PMS7003;56319;48.920;2.332;2024-01-30T13:53:09;5.00;5.00;3.00
69205;PMS7003;56319;48.920;2.332;2024-01-30T13:55:35;6.00;6.00;4.75
69205;PMS7003;56319;48.920;2.332;2024-01-30T13:58:00;6.75;5.00;4.25
69205;PMS7003;56319;48.920;2.332;2024-01-30T14:00:27;12.25;5.75;5.00
69205;PMS7003;56319;48.920;2.332;2024-01-30T14:02:53;6.50;5.50;4.00
69205;PMS7003;56319;48.920;2.332;2024-01-30T14:05:20;5.00;5.00;4.00